Time;durP1;ratioP1;P1;durP2;ratioP2;P2;SDS_P1;SDS_P2;PMS_P1;PMS_P2;Temp;Humidity;BMP_temperature;BMP_pressure;BME280_temperature;BME280_humidity;BME280_pressure;Samples;Min_cycle;Max_cycle;Signal;HPM_P1;HPM_P2
2022/09/19 00:01:39;;;;;;;;;;;;;;;14.67;54.67;99837.94;5060959;28;19923;-68
2022/09/19 00:04:04;;;;;;;;;;;;;;;14.62;54.55;99837.66;5061371;28;19924;-68
2022/09/19 00:06:30;;;;;;;;;;;;;;;14.65;54.45;99839.97;5058363;28;19917;-68
2022/09/19 00:08:57;;;;;;;;;;;;;;;14.72;53.80;99841.88;5060467;28;19935;-68
2022/09/19 00:11:22;;;;;;;;;;;;;;;14.69;54.19;99840.41;5059929;28;19916;-68
2022/09/19 00:13:49;;;;;;;;;;;;;;;14.71;53.77;99843.72;5060309;28;19912;-68
2022/09/19 00:16:23;;;;;;;;;;;;;;;14.32;54.58;99844.78;5055825;28;19917;-68
2022/09/19 00:18:49;;;;;;;;;;;;;;;14.61;54.39;99846.66;5043244;28;19920;-67
2022/09/19 00:21:18;;;;;;;;;;;;;;;14.47;54.37;99851.97;5047364;28;19984;-68
2022/09/19 00:26:27;;;;;;;;;;;;;;;14.60;54.02;99836.19;5057646;28;19924;-68
2022/09/19 00:28:55;;;;;;;;;;;;;;;14.41;54.62;99834.88;5062834;28;19987;-67
2022/09/19 00:31:21;;;;;;;;;;;;;;;14.37;54.75;99844.22;5060905;28;19917;-68
2022/09/19 00:33:47;;;;;;;;;;;;;;;14.09;55.78;99838.72;5057608;28;20018;-68
2022/09/19 00:36:14;;;;;;;;;;;;;;;13.89;56.72;99838.41;5056055;28;20341;-68
2022/09/19 00:38:40;;;;;;;;;;;;;;;14.16;56.31;99847.63;5057516;28;19913;-68
2022/09/19 00:41:06;;;;;;;;;;;;;;;14.13;56.29;99844.50;5057887;28;20138;-68
2022/09/19 00:43:45;;;;;;;;;;;;;;;13.98;56.76;99850.63;5059006;28;20265;-68
2022/09/19 00:46:10;;;;;;;;;;;;;;;14.27;55.91;99847.19;5061276;28;20310;-68
2022/09/19 00:48:40;;;;;;;;;;;;;;;14.49;55.22;99840.13;5062897;28;19909;-67
2022/09/19 00:51:05;;;;;;;;;;;;;;;14.31;55.53;99835.16;5056775;28;20216;-68
2022/09/19 00:53:31;;;;;;;;;;;;;;;14.24;55.92;99833.41;5057608;28;19917;-68
2022/09/19 00:55:57;;;;;;;;;;;;;;;14.41;55.63;99842.84;5056910;28;19919;-68
2022/09/19 00:58:27;;;;;;;;;;;;;;;14.12;56.46;99833.03;5057398;28;19917;-68
2022/09/19 01:00:53;;;;;;;;;;;;;;;13.97;56.66;99827.69;5058763;28;19913;-68
2022/09/19 01:03:18;;;;;;;;;;;;;;;13.84;57.28;99824.00;5056141;28;19916;-68
2022/09/19 01:05:48;;;;;;;;;;;;;;;13.83;57.02;99819.69;5041364;28;20035;-68
2022/09/19 01:08:24;;;;;;;;;;;;;;;13.76;57.05;99824.91;5057698;28;20027;-68
2022/09/19 01:10:55;;;;;;;;;;;;;;;13.66;57.12;99816.34;5056323;28;20206;-68
2022/09/19 01:13:25;;;;;;;;;;;;;;;13.46;57.31;99821.31;5057621;28;19955;-67
2022/09/19 01:16:02;;;;;;;;;;;;;;;13.48;57.36;99816.63;5054446;28;20023;-68
2022/09/19 01:18:31;;;;;;;;;;;;;;;13.30;57.50;99832.06;5058358;28;19924;-67
2022/09/19 01:24:19;;;;;;;;;;;;;;;13.38;58.27;99818.72;5055535;28;20221;-68
2022/09/19 01:27:05;;;;;;;;;;;;;;;13.35;58.16;99817.25;5055337;28;20110;-68
2022/09/19 01:29:39;;;;;;;;;;;;;;;13.25;57.99;99821.13;5054416;28;19919;-68
2022/09/19 01:32:08;;;;;;;;;;;;;;;13.29;57.99;99820.59;5055037;28;19917;-68
2022/09/19 01:34:39;;;;;;;;;;;;;;;13.31;57.34;99818.59;5057632;28;20155;-68
2022/09/19 01:37:08;;;;;;;;;;;;;;;13.27;57.16;99811.97;5056495;28;20199;-68
2022/09/19 01:39:36;;;;;;;;;;;;;;;13.32;56.73;99817.59;5056228;28;19913;-68
2022/09/19 01:42:01;;;;;;;;;;;;;;;13.32;57.28;99819.41;5053938;28;19928;-68
2022/09/19 01:44:28;;;;;;;;;;;;;;;13.28;57.23;99810.97;5057513;28;19921;-68
2022/09/19 01:46:59;;;;;;;;;;;;;;;13.54;56.47;99818.63;5056667;28;19963;-68
2022/09/19 01:49:27;;;;;;;;;;;;;;;13.73;55.90;99819.94;5054608;28;19947;-67
2022/09/19 01:52:02;;;;;;;;;;;;;;;13.58;56.19;99822.56;5058418;28;19931;-68
2022/09/19 01:54:39;;;;;;;;;;;;;;;13.89;55.75;99825.09;5061160;28;19994;-68
2022/09/19 01:57:04;;;;;;;;;;;;;;;13.85;56.01;99821.16;5059736;28;19936;-67
2022/09/19 01:59:30;;;;;;;;;;;;;;;13.66;56.43;99813.69;5038987;28;19920;-68
2022/09/19 02:01:58;;;;;;;;;;;;;;;13.35;56.83;99819.91;5039792;28;20206;-68
2022/09/19 02:04:37;;;;;;;;;;;;;;;13.15;57.64;99813.38;5055811;28;20414;-68
2022/09/19 02:07:29;;;;;;;;;;;;;;;12.80;59.12;99820.06;5056643;28;19935;-68
2022/09/19 02:10:05;;;;;;;;;;;;;;;13.10;58.23;99818.38;5054575;28;19959;-68
2022/09/19 02:12:31;;;;;;;;;;;;;;;12.72;58.93;99820.94;5056638;28;19916;-68
2022/09/19 02:14:59;;;;;;;;;;;;;;;12.88;59.01;99827.16;5055697;28;20114;-67
2022/09/19 02:17:32;;;;;;;;;;;;;;;13.13;58.17;99826.00;5053598;28;19917;-67
2022/09/19 02:20:07;;;;;;;;;;;;;;;13.10;57.87;99827.19;5057442;28;20313;-67
2022/09/19 02:22:35;;;;;;;;;;;;;;;13.33;57.79;99837.03;5056518;28;19917;-68
2022/09/19 02:25:03;;;;;;;;;;;;;;;13.21;57.69;99827.81;5054700;28;19939;-69
2022/09/19 02:27:35;;;;;;;;;;;;;;;13.08;58.31;99831.03;5060831;28;19913;-69
2022/09/19 02:30:05;;;;;;;;;;;;;;;13.24;57.93;99833.59;5058493;28;19921;-69
2022/09/19 02:32:32;;;;;;;;;;;;;;;13.43;57.55;99832.31;5055497;28;19928;-69
2022/09/19 02:34:59;;;;;;;;;;;;;;;13.23;57.72;99833.78;5056569;28;19920;-69
2022/09/19 02:37:35;;;;;;;;;;;;;;;13.15;58.09;99831.16;5059331;28;20195;-69
2022/09/19 02:40:08;;;;;;;;;;;;;;;13.30;57.74;99838.22;5057051;28;19912;-69
2022/09/19 02:42:47;;;;;;;;;;;;;;;13.38;57.83;99840.00;5054246;28;19963;-69
2022/09/19 02:45:17;;;;;;;;;;;;;;;13.32;57.72;99841.53;5053519;28;19912;-69
2022/09/19 02:47:55;;;;;;;;;;;;;;;13.42;57.32;99838.63;5058468;28;19917;-69
2022/09/19 02:50:36;;;;;;;;;;;;;;;13.52;57.26;99841.88;5060771;28;19955;-69
2022/09/19 02:53:04;;;;;;;;;;;;;;;13.31;58.07;99812.44;5057273;28;19927;-69
2022/09/19 02:55:32;;;;;;;;;;;;;;;13.39;57.99;99841.66;5056405;28;19992;-69
2022/09/19 02:58:00;;;;;;;;;;;;;;;13.29;58.59;99851.69;5055309;28;19916;-69
2022/09/19 03:00:25;;;;;;;;;;;;;;;13.08;58.95;99846.97;5054474;28;19912;-69
2022/09/19 03:02:57;;;;;;;;;;;;;;;12.76;60.32;99845.31;5060482;28;19991;-69
2022/09/19 03:05:25;;;;;;;;;;;;;;;12.83;60.34;99848.13;5056548;28;19919;-69
2022/09/19 03:08:02;;;;;;;;;;;;;;;13.03;59.77;99844.00;5052330;28;20202;-69
2022/09/19 03:10:30;;;;;;;;;;;;;;;13.10;59.82;99847.63;5057293;28;19947;-69
2022/09/19 03:12:57;;;;;;;;;;;;;;;13.15;59.03;99847.94;5037096;28;20207;-69
2022/09/19 03:15:32;;;;;;;;;;;;;;;13.21;58.68;99846.44;5055422;28;20166;-69
2022/09/19 03:18:00;;;;;;;;;;;;;;;13.18;59.22;99844.94;5053070;28;19925;-69
2022/09/19 03:20:25;;;;;;;;;;;;;;;13.05;59.02;99848.16;5054604;28;19920;-69
2022/09/19 03:22:53;;;;;;;;;;;;;;;12.92;59.09;99850.56;5056605;28;19924;-69
2022/09/19 03:25:18;;;;;;;;;;;;;;;12.76;58.43;99850.63;5060228;28;20127;-69
2022/09/19 03:27:44;;;;;;;;;;;;;;;12.43;58.79;99797.63;5061592;28;19980;-69
2022/09/19 03:30:11;;;;;;;;;;;;;;;12.44;59.24;99864.84;5058587;28;20111;-69
2022/09/19 03:32:37;;;;;;;;;;;;;;;12.12;61.08;99861.28;5059487;28;19916;-69
2022/09/19 03:35:04;;;;;;;;;;;;;;;12.00;61.54;99861.81;5058167;28;19912;-69
2022/09/19 03:37:29;;;;;;;;;;;;;;;12.14;62.06;99848.66;5063995;28;19919;-69
2022/09/19 03:39:55;;;;;;;;;;;;;;;12.13;62.10;99846.19;5060675;28;19928;-69
2022/09/19 03:42:20;;;;;;;;;;;;;;;12.30;62.55;99849.63;5062833;28;19917;-69
2022/09/19 03:44:45;;;;;;;;;;;;;;;12.40;61.92;99860.88;5067561;28;20210;-69
2022/09/19 03:47:11;;;;;;;;;;;;;;;12.41;61.66;99854.56;5076609;28;19913;-69
2022/09/19 03:49:36;;;;;;;;;;;;;;;12.38;60.66;99858.41;5071914;28;19908;-69
2022/09/19 03:52:01;;;;;;;;;;;;;;;12.21;61.16;99861.25;5047731;28;19924;-69
2022/09/19 03:54:27;;;;;;;;;;;;;;;12.02;61.78;99863.28;5064945;28;19950;-69
2022/09/19 03:56:53;;;;;;;;;;;;;;;11.89;62.44;99862.16;5063636;28;19917;-69
2022/09/19 03:59:18;;;;;;;;;;;;;;;11.81;63.13;99858.50;5078874;28;19909;-69
2022/09/19 04:01:44;;;;;;;;;;;;;;;11.78;63.28;99852.72;5064802;28;19916;-69
2022/09/19 04:04:10;;;;;;;;;;;;;;;11.91;62.74;99855.69;5064448;28;19916;-69
2022/09/19 04:06:36;;;;;;;;;;;;;;;12.05;62.36;99855.00;5064749;28;19917;-69
2022/09/19 04:09:01;;;;;;;;;;;;;;;12.16;62.02;99856.47;5064545;28;20201;-69
2022/09/19 04:11:27;;;;;;;;;;;;;;;12.12;62.38;99850.66;5064523;28;19917;-69
2022/09/19 04:13:53;;;;;;;;;;;;;;;12.10;62.07;99860.63;5064547;28;20113;-69
2022/09/19 04:16:19;;;;;;;;;;;;;;;12.22;62.32;99866.41;5078567;28;19947;-69
2022/09/19 04:18:47;;;;;;;;;;;;;;;12.06;62.36;99872.56;5064447;28;19916;-69
2022/09/19 04:21:13;;;;;;;;;;;;;;;11.86;62.79;99873.94;5064253;28;19962;-69
2022/09/19 04:23:39;;;;;;;;;;;;;;;11.99;62.69;99868.94;5064477;28;19971;-69
2022/09/19 04:26:04;;;;;;;;;;;;;;;12.11;62.70;99864.94;5064398;28;19908;-69
2022/09/19 04:28:30;;;;;;;;;;;;;;;12.18;62.79;99870.41;5064336;28;20256;-69
2022/09/19 04:30:55;;;;;;;;;;;;;;;12.29;62.80;99869.22;5063892;28;19948;-69
2022/09/19 04:33:26;;;;;;;;;;;;;;;12.25;61.99;99862.59;5064097;28;19975;-69
2022/09/19 04:35:51;;;;;;;;;;;;;;;12.29;62.76;99871.88;5064498;28;19912;-69
2022/09/19 04:38:17;;;;;;;;;;;;;;;12.44;62.52;99873.66;5064407;28;19917;-69
2022/09/19 04:40:45;;;;;;;;;;;;;;;12.56;62.45;99863.50;5035064;28;19984;-69
2022/09/19 04:43:12;;;;;;;;;;;;;;;12.62;62.67;99875.28;5037903;28;19983;-69
2022/09/19 04:45:39;;;;;;;;;;;;;;;12.75;61.51;99865.75;5043792;28;19920;-69
2022/09/19 04:48:05;;;;;;;;;;;;;;;12.92;61.49;99868.34;5043941;28;20071;-69
2022/09/19 04:50:31;;;;;;;;;;;;;;;12.88;61.84;99867.03;5040749;28;19913;-69
2022/09/19 04:52:57;;;;;;;;;;;;;;;12.97;62.08;99863.31;5041469;28;19963;-69
2022/09/19 04:55:24;;;;;;;;;;;;;;;12.93;62.71;99865.50;5042495;28;20324;-69
2022/09/19 04:57:49;;;;;;;;;;;;;;;13.07;62.83;99863.94;5041533;28;20127;-69
2022/09/19 05:00:14;;;;;;;;;;;;;;;13.24;62.50;99870.00;5038773;28;19939;-69
2022/09/19 05:02:39;;;;;;;;;;;;;;;13.31;62.16;99871.78;5040783;28;19948;-69
2022/09/19 05:05:06;;;;;;;;;;;;;;;13.46;60.12;99868.34;5043271;28;19913;-69
2022/09/19 05:07:35;;;;;;;;;;;;;;;13.48;59.75;99861.84;5040370;28;20606;-69
2022/09/19 05:10:02;;;;;;;;;;;;;;;13.52;58.70;99843.69;5040645;28;20214;-69
2022/09/19 05:12:28;;;;;;;;;;;;;;;13.89;57.67;99872.19;5041894;28;20222;-69
2022/09/19 05:14:54;;;;;;;;;;;;;;;14.04;56.56;99879.19;5041571;28;20089;-69
2022/09/19 05:17:19;;;;;;;;;;;;;;;13.77;56.95;99839.88;5036947;28;19923;-69
2022/09/19 05:19:45;;;;;;;;;;;;;;;14.07;56.28;99867.34;5040080;28;20105;-69
2022/09/19 05:22:10;;;;;;;;;;;;;;;14.16;56.80;99873.44;5038361;28;19984;-69
2022/09/19 05:24:37;;;;;;;;;;;;;;;14.50;55.77;99867.59;5041395;28;19951;-69
2022/09/19 05:27:03;;;;;;;;;;;;;;;14.94;54.25;99872.91;5039402;28;19956;-69
2022/09/19 05:29:28;;;;;;;;;;;;;;;15.16;53.10;99871.94;5038046;28;20288;-69
2022/09/19 05:31:55;;;;;;;;;;;;;;;15.60;51.41;99873.63;5041672;28;19959;-69
2022/09/19 05:34:20;;;;;;;;;;;;;;;15.83;51.62;99874.28;5042031;28;19920;-69
2022/09/19 05:36:47;;;;;;;;;;;;;;;15.68;50.40;99880.72;5042348;28;19913;-69
2022/09/19 05:39:13;;;;;;;;;;;;;;;15.76;48.62;99876.06;5041400;28;19936;-69
2022/09/19 05:41:38;;;;;;;;;;;;;;;16.17;48.98;99875.34;5055693;28;19924;-69
2022/09/19 05:44:03;;;;;;;;;;;;;;;16.39;48.65;99870.78;5058221;28;19913;-69
2022/09/19 05:46:29;;;;;;;;;;;;;;;16.81;47.93;99876.00;5059314;28;20199;-69
2022/09/19 05:48:54;;;;;;;;;;;;;;;17.02;46.54;99883.06;5063676;28;20107;-69
2022/09/19 05:51:20;;;;;;;;;;;;;;;17.36;46.49;99886.66;5059985;28;20111;-69
2022/09/19 05:53:54;;;;;;;;;;;;;;;17.00;47.14;99884.28;5059031;28;19958;-69
2022/09/19 05:56:20;;;;;;;;;;;;;;;17.20;45.71;99887.88;5058330;28;19976;-69
2022/09/19 05:58:45;;;;;;;;;;;;;;;17.38;45.17;99882.75;5061188;28;19908;-69
2022/09/19 06:01:11;;;;;;;;;;;;;;;17.59;43.99;99878.25;5059875;28;21272;-69
2022/09/19 06:03:38;;;;;;;;;;;;;;;17.70;43.94;99875.03;5058903;28;19916;-69
2022/09/19 06:06:09;;;;;;;;;;;;;;;17.96;43.78;99882.25;5061030;28;19919;-69
2022/09/19 06:08:34;;;;;;;;;;;;;;;18.19;42.73;99880.81;5061318;28;19916;-70
2022/09/19 06:11:00;;;;;;;;;;;;;;;18.47;42.33;99882.41;5061323;28;19919;-69
2022/09/19 06:14:13;;;;;;;;;;;;;;;18.59;42.35;99879.91;5060120;28;20098;-70
2022/09/19 06:16:10;;;;;;;;;;;;;;;18.73;41.34;99886.94;5055833;28;20110;-69
2022/09/19 06:18:36;;;;;;;;;;;;;;;18.42;41.64;99882.22;5060706;28;19913;-70
2022/09/19 06:21:01;;;;;;;;;;;;;;;18.68;41.14;99892.91;5061333;28;20182;-69
2022/09/19 06:23:27;;;;;;;;;;;;;;;18.66;42.01;99894.13;5060946;28;19924;-69
2022/09/19 06:25:52;;;;;;;;;;;;;;;18.72;41.38;99896.81;5060738;28;19924;-69
2022/09/19 06:28:17;;;;;;;;;;;;;;;18.86;40.49;99892.25;5058775;28;19948;-69
2022/09/19 06:30:42;;;;;;;;;;;;;;;19.00;40.83;99888.47;5042943;28;20157;-69
2022/09/19 06:33:08;;;;;;;;;;;;;;;18.81;40.58;99892.88;5060716;28;19971;-69
2022/09/19 06:35:33;;;;;;;;;;;;;;;18.92;39.85;99891.41;5060257;28;20114;-69
2022/09/19 06:38:02;;;;;;;;;;;;;;;18.72;40.38;99885.25;5061366;28;20210;-69
2022/09/19 06:40:28;;;;;;;;;;;;;;;18.63;40.58;99890.03;5061694;28;20216;-69
2022/09/19 06:43:02;;;;;;;;;;;;;;;19.23;40.38;99889.81;5060326;28;19944;-69
2022/09/19 06:45:40;;;;;;;;;;;;;;;19.39;39.67;99894.69;5060756;28;19913;-69
2022/09/19 06:48:06;;;;;;;;;;;;;;;19.70;38.92;99891.19;5044433;28;19919;-69
2022/09/19 06:50:31;;;;;;;;;;;;;;;19.82;38.14;99891.34;5061989;28;19913;-69
2022/09/19 06:52:57;;;;;;;;;;;;;;;20.25;37.16;99891.38;5061725;28;20000;-69
2022/09/19 06:55:25;;;;;;;;;;;;;;;20.50;37.48;99886.81;5061888;28;19943;-69
2022/09/19 06:57:58;;;;;;;;;;;;;;;20.85;36.87;99889.78;5075538;28;20275;-69
2022/09/19 07:00:24;;;;;;;;;;;;;;;21.02;36.81;99889.97;5080746;28;19976;-69
2022/09/19 07:02:59;;;;;;;;;;;;;;;21.31;36.08;99873.03;5083060;28;19923;-69
2022/09/19 07:05:25;;;;;;;;;;;;;;;21.28;35.76;99880.75;5082217;28;19943;-69
2022/09/19 07:07:51;;;;;;;;;;;;;;;21.16;35.88;99877.97;5065678;28;20205;-69
2022/09/19 07:10:17;;;;;;;;;;;;;;;21.37;34.49;99882.06;5082305;28;19919;-70
2022/09/19 07:12:42;;;;;;;;;;;;;;;21.53;34.04;99880.59;5084886;28;19916;-70
2022/09/19 07:15:07;;;;;;;;;;;;;;;21.27;33.96;99877.25;5084176;28;20348;-70
2022/09/19 07:17:33;;;;;;;;;;;;;;;21.14;34.62;99871.19;5084481;28;19915;-69
2022/09/19 07:19:59;;;;;;;;;;;;;;;20.40;35.30;99873.88;5065066;28;20217;-69
2022/09/19 07:22:24;;;;;;;;;;;;;;;20.58;34.66;99866.88;5082183;28;19916;-70
2022/09/19 07:24:49;;;;;;;;;;;;;;;20.73;34.89;99865.44;5083011;28;19912;-69
2022/09/19 07:27:15;;;;;;;;;;;;;;;20.93;34.30;99859.03;5082104;28;19917;-69
2022/09/19 07:29:40;;;;;;;;;;;;;;;21.29;33.45;99867.06;5082959;28;19968;-69
2022/09/19 07:32:05;;;;;;;;;;;;;;;21.19;35.16;99866.75;5064215;28;20323;-69
2022/09/19 07:34:32;;;;;;;;;;;;;;;21.68;33.68;99865.66;5082660;28;19912;-69
2022/09/19 07:36:57;;;;;;;;;;;;;;;21.98;32.67;99860.22;5082833;28;19954;-68
2022/09/19 07:39:22;;;;;;;;;;;;;;;21.84;32.77;99855.25;5081608;28;19912;-69
2022/09/19 07:41:47;;;;;;;;;;;;;;;21.75;33.47;99860.16;5082739;28;20118;-69
2022/09/19 07:44:13;;;;;;;;;;;;;;;22.10;33.07;99868.34;5082713;28;19943;-69
2022/09/19 07:47:26;;;;;;;;;;;;;;;22.59;31.55;99863.47;5083798;28;19919;-69
2022/09/19 07:49:23;;;;;;;;;;;;;;;21.93;33.07;99865.47;5083618;28;19912;-69
2022/09/19 07:51:50;;;;;;;;;;;;;;;21.74;33.32;99861.19;5083920;28;19995;-69
2022/09/19 07:54:16;;;;;;;;;;;;;;;22.01;33.46;99856.22;5082773;28;20090;-69
2022/09/19 07:56:41;;;;;;;;;;;;;;;22.29;33.21;99856.38;5083638;28;19939;-69
2022/09/19 07:59:06;;;;;;;;;;;;;;;22.37;32.42;99857.88;5083555;28;19912;-69
2022/09/19 08:01:31;;;;;;;;;;;;;;;22.30;32.29;99854.50;5082495;28;20201;-69
2022/09/19 08:03:57;;;;;;;;;;;;;;;22.66;31.49;99853.38;5083500;28;19983;-69
2022/09/19 08:06:22;;;;;;;;;;;;;;;22.98;31.71;99848.41;5082754;28;20169;-69
2022/09/19 08:08:48;;;;;;;;;;;;;;;22.48;31.50;99848.94;5082394;28;19919;-69
2022/09/19 08:11:13;;;;;;;;;;;;;;;22.52;31.35;99850.13;5082464;28;19917;-69
2022/09/19 08:13:38;;;;;;;;;;;;;;;22.10;32.44;99843.25;5082361;28;19923;-69
2022/09/19 08:16:04;;;;;;;;;;;;;;;21.83;32.79;99838.25;5082729;28;20194;-69
2022/09/19 08:18:29;;;;;;;;;;;;;;;21.85;31.76;99836.16;5081723;28;19916;-69
2022/09/19 08:20:55;;;;;;;;;;;;;;;22.24;31.99;99831.16;5082632;28;19912;-70
2022/09/19 08:23:20;;;;;;;;;;;;;;;22.32;32.37;99832.66;5063107;28;19991;-69
2022/09/19 08:25:46;;;;;;;;;;;;;;;22.20;32.32;99830.81;5082038;28;20300;-69
2022/09/19 08:28:12;;;;;;;;;;;;;;;22.34;32.25;99823.28;5080230;28;19984;-70
2022/09/19 08:30:37;;;;;;;;;;;;;;;22.68;31.68;99818.88;5082108;28;19975;-69
2022/09/19 08:33:03;;;;;;;;;;;;;;;22.97;31.03;99813.56;5080151;28;19916;-69
2022/09/19 08:35:29;;;;;;;;;;;;;;;22.76;29.96;99813.09;5081983;28;19916;-68
2022/09/19 08:37:55;;;;;;;;;;;;;;;22.96;30.93;99810.03;5081888;28;19955;-69
2022/09/19 08:40:31;;;;;;;;;;;;;;;23.03;30.71;99801.78;5082880;28;20088;-68
2022/09/19 08:43:07;;;;;;;;;;;;;;;23.23;30.54;99796.75;5065317;28;19955;-69
2022/09/19 08:45:44;;;;;;;;;;;;;;;23.38;29.29;99801.59;5081766;28;19912;-69
2022/09/19 08:48:13;;;;;;;;;;;;;;;22.97;30.08;99805.44;5082601;28;19916;-69
2022/09/19 08:50:40;;;;;;;;;;;;;;;22.73;30.34;99799.25;5082463;28;19924;-69
2022/09/19 08:53:10;;;;;;;;;;;;;;;22.34;29.99;99792.78;5082142;28;19987;-69
2022/09/19 08:55:35;;;;;;;;;;;;;;;22.53;30.91;99789.69;5082642;28;19950;-69
2022/09/19 08:58:16;;;;;;;;;;;;;;;22.37;29.97;99784.22;5081739;28;19916;-69
2022/09/19 09:00:45;;;;;;;;;;;;;;;22.11;30.37;99786.38;5082404;28;19912;-69
2022/09/19 09:03:20;;;;;;;;;;;;;;;22.01;31.25;99780.72;5081200;28;19923;-69
2022/09/19 09:05:45;;;;;;;;;;;;;;;21.86;30.67;99773.13;5082260;28;19913;-69
2022/09/19 09:08:31;;;;;;;;;;;;;;;22.05;29.90;99776.53;5081362;28;19917;-69
2022/09/19 09:11:20;;;;;;;;;;;;;;;22.06;30.16;99766.56;5081461;28;19958;-69
2022/09/19 09:14:08;;;;;;;;;;;;;;;21.94;30.13;99764.66;5079376;28;20225;-69
2022/09/19 09:16:39;;;;;;;;;;;;;;;22.11;31.13;99764.81;5075228;28;19916;-69
2022/09/19 09:19:17;;;;;;;;;;;;;;;22.62;30.25;99755.88;5071992;28;20047;-69
2022/09/19 09:21:48;;;;;;;;;;;;;;;22.77;29.19;99760.75;5067660;28;20109;-69
2022/09/19 09:24:26;;;;;;;;;;;;;;;22.84;28.33;99756.06;5067317;28;19944;-70
2022/09/19 09:26:54;;;;;;;;;;;;;;;22.55;29.26;99743.59;5066546;28;20023;-69
2022/09/19 09:29:25;;;;;;;;;;;;;;;22.62;29.41;99739.69;5067460;28;19912;-69
2022/09/19 09:31:56;;;;;;;;;;;;;;;22.65;30.44;99740.25;5067013;28;20224;-69
2022/09/19 09:34:43;;;;;;;;;;;;;;;22.37;30.74;99736.47;5067471;28;19920;-69
2022/09/19 09:37:20;;;;;;;;;;;;;;;22.26;31.77;99740.03;5066798;28;19928;-69
2022/09/19 09:40:00;;;;;;;;;;;;;;;22.37;30.95;99720.28;5069781;28;20190;-69
2022/09/19 09:42:30;;;;;;;;;;;;;;;22.23;29.94;99732.41;5063905;28;19920;-69
2022/09/19 09:45:14;;;;;;;;;;;;;;;21.34;31.26;99694.00;5067461;28;19913;-69
2022/09/19 09:47:44;;;;;;;;;;;;;;;21.69;31.02;99715.56;5067686;28;19952;-70
2022/09/19 09:50:42;;;;;;;;;;;;;;;20.97;32.06;99710.31;5065809;28;20190;-69
2022/09/19 09:53:29;;;;;;;;;;;;;;;21.19;30.98;99715.97;5049467;28;19917;-69
2022/09/19 09:56:17;;;;;;;;;;;;;;;21.34;30.26;99710.97;5065848;28;19913;-69
2022/09/19 09:58:42;;;;;;;;;;;;;;;21.42;29.97;99715.19;5063800;28;19923;-69
2022/09/19 10:04:06;;;;;;;;;;;;;;;20.99;30.44;99716.28;5063924;28;19923;-69
2022/09/19 10:06:40;;;;;;;;;;;;;;;21.13;30.61;99700.72;5049409;28;20224;-68
2022/09/19 10:09:17;;;;;;;;;;;;;;;21.35;29.48;99701.84;5066982;28;20154;-69
2022/09/19 10:11:57;;;;;;;;;;;;;;;21.44;29.06;99701.50;5066945;28;19923;-69
2022/09/19 10:14:25;;;;;;;;;;;;;;;21.48;27.45;99697.28;5066333;28;19912;-69
2022/09/19 10:16:53;;;;;;;;;;;;;;;21.30;26.38;99696.34;5065912;28;19925;-69
2022/09/19 10:19:19;;;;;;;;;;;;;;;21.43;24.96;99686.38;5066458;28;19919;-69
2022/09/19 10:21:44;;;;;;;;;;;;;;;21.49;24.66;99685.44;5066041;28;19924;-69
2022/09/19 10:24:38;;;;;;;;;;;;;;;21.63;25.47;99682.28;5064612;28;19928;-69
2022/09/19 10:27:10;;;;;;;;;;;;;;;21.54;25.65;99678.31;5045766;28;20146;-69
2022/09/19 10:29:35;;;;;;;;;;;;;;;21.33;24.48;99679.72;5039005;28;19916;-69
2022/09/19 10:32:07;;;;;;;;;;;;;;;21.12;24.22;99669.47;5058322;28;19961;-68
2022/09/19 10:34:34;;;;;;;;;;;;;;;21.34;25.75;99670.56;5068611;28;20071;-69
2022/09/19 10:37:03;;;;;;;;;;;;;;;21.53;25.22;99665.88;5070177;28;19917;-69
2022/09/19 10:39:29;;;;;;;;;;;;;;;21.64;24.92;99661.53;5068972;28;19988;-69
2022/09/19 10:41:54;;;;;;;;;;;;;;;21.81;26.58;99661.63;5070420;28;19917;-69
2022/09/19 10:44:22;;;;;;;;;;;;;;;21.66;25.63;99656.75;5071816;28;19913;-69
2022/09/19 10:46:54;;;;;;;;;;;;;;;21.72;28.80;99654.97;5069190;28;19924;-69
2022/09/19 10:49:24;;;;;;;;;;;;;;;21.75;26.68;99649.13;5066408;28;20277;-69
2022/09/19 10:51:51;;;;;;;;;;;;;;;21.98;27.19;99643.69;5071369;28;19917;-69
2022/09/19 10:54:31;;;;;;;;;;;;;;;21.89;28.60;99639.75;5069223;28;19920;-69
2022/09/19 10:57:01;;;;;;;;;;;;;;;21.84;28.52;99651.19;5070505;28;19932;-69
2022/09/19 10:59:28;;;;;;;;;;;;;;;21.66;29.27;99649.47;5067560;28;20707;-69
2022/09/19 11:02:04;;;;;;;;;;;;;;;21.48;27.86;99646.91;5069486;28;20224;-68
2022/09/19 11:04:29;;;;;;;;;;;;;;;21.63;27.36;99641.88;5069124;28;20146;-68
2022/09/19 11:06:58;;;;;;;;;;;;;;;21.56;26.92;99633.09;5069891;28;19924;-68
2022/09/19 11:09:28;;;;;;;;;;;;;;;21.70;28.03;99624.75;5068032;28;19912;-69
2022/09/19 11:12:02;;;;;;;;;;;;;;;21.83;28.20;99621.78;5069659;28;19982;-69
2022/09/19 11:14:37;;;;;;;;;;;;;;;21.67;27.87;99628.75;5069967;28;19920;-69
2022/09/19 11:17:40;;;;;;;;;;;;;;;21.32;28.49;99624.22;5068766;28;19948;-69
2022/09/19 11:20:16;;;;;;;;;;;;;;;21.51;28.10;99619.50;5027352;28;20200;-69
2022/09/19 11:22:47;;;;;;;;;;;;;;;21.70;28.58;99601.31;5014987;28;19986;-69
2022/09/19 11:25:15;;;;;;;;;;;;;;;21.54;27.83;99610.94;5048322;28;19919;-69
2022/09/19 11:27:56;;;;;;;;;;;;;;;21.47;28.99;99602.19;5070982;28;19923;-69
2022/09/19 11:30:28;;;;;;;;;;;;;;;21.66;27.73;99595.59;5069836;28;19959;-69
2022/09/19 11:32:57;;;;;;;;;;;;;;;21.69;28.30;99594.28;5068865;28;19916;-69
2022/09/19 11:35:27;;;;;;;;;;;;;;;21.76;29.49;99594.97;5065774;28;19920;-69
2022/09/19 11:38:07;;;;;;;;;;;;;;;21.30;28.51;99602.06;5052386;28;20136;-69
2022/09/19 11:40:38;;;;;;;;;;;;;;;21.69;27.91;99588.91;5068104;28;19912;-69
2022/09/19 11:43:32;;;;;;;;;;;;;;;21.67;27.68;99591.00;5068955;28;20245;-69
2022/09/19 11:46:09;;;;;;;;;;;;;;;21.78;28.62;99584.78;5068150;28;19919;-69
2022/09/19 11:48:44;;;;;;;;;;;;;;;21.54;27.73;99586.69;5068738;28;19952;-69
2022/09/19 11:51:26;;;;;;;;;;;;;;;21.64;29.91;99578.84;5068593;28;19916;-69
2022/09/19 11:54:02;;;;;;;;;;;;;;;21.80;28.06;99573.75;5070803;28;20316;-69
2022/09/19 11:56:42;;;;;;;;;;;;;;;21.83;28.77;99567.88;5068715;28;19928;-68
2022/09/19 11:59:07;;;;;;;;;;;;;;;21.90;28.18;99573.97;5069242;28;20030;-69
2022/09/19 12:01:48;;;;;;;;;;;;;;;21.89;28.50;99558.88;5068744;28;19912;-68
2022/09/19 12:04:32;;;;;;;;;;;;;;;21.89;29.32;99553.47;5067447;28;19924;-69
2022/09/19 12:07:16;;;;;;;;;;;;;;;21.81;30.00;99551.94;5067513;28;19916;-69
2022/09/19 12:09:52;;;;;;;;;;;;;;;21.64;29.34;99549.19;5065955;28;19912;-68
2022/09/19 12:12:20;;;;;;;;;;;;;;;21.66;29.26;99540.88;5067545;28;19993;-69
2022/09/19 12:14:45;;;;;;;;;;;;;;;21.68;29.56;99544.16;5070010;28;19980;-69
2022/09/19 12:17:12;;;;;;;;;;;;;;;21.73;29.62;99533.47;5066762;28;19916;-68
2022/09/19 12:19:46;;;;;;;;;;;;;;;21.84;29.21;99537.19;5067811;28;19991;-69
2022/09/19 12:22:14;;;;;;;;;;;;;;;21.74;29.29;99537.78;5070107;28;19916;-69
2022/09/19 12:24:55;;;;;;;;;;;;;;;21.85;29.75;99536.16;5067645;28;20025;-69
2022/09/19 12:27:24;;;;;;;;;;;;;;;22.05;29.10;99531.16;5067451;28;19917;-69
2022/09/19 12:29:59;;;;;;;;;;;;;;;21.80;29.51;99530.63;5068504;28;19920;-69
2022/09/19 12:32:27;;;;;;;;;;;;;;;21.71;30.02;99527.50;5065345;28;19916;-69
2022/09/19 12:35:02;;;;;;;;;;;;;;;21.75;29.51;99527.84;5068255;28;19939;-69
2022/09/19 12:37:36;;;;;;;;;;;;;;;21.78;29.61;99522.78;5069353;28;19922;-69
2022/09/19 12:40:04;;;;;;;;;;;;;;;21.81;30.59;99529.56;5067563;28;19951;-69
2022/09/19 12:42:52;;;;;;;;;;;;;;;21.89;28.93;99521.94;5073701;28;19916;-69
2022/09/19 12:45:39;;;;;;;;;;;;;;;21.69;29.70;99510.75;5081658;28;19948;-69
2022/09/19 12:48:05;;;;;;;;;;;;;;;21.97;28.94;99508.09;5068560;28;20198;-69
2022/09/19 12:50:35;;;;;;;;;;;;;;;22.01;28.93;99510.28;5066930;28;19964;-69
2022/09/19 12:53:11;;;;;;;;;;;;;;;21.85;30.22;99503.81;5068918;28;19953;-69
2022/09/19 12:55:39;;;;;;;;;;;;;;;22.07;29.25;99509.34;5065962;28;19958;-68
2022/09/19 12:58:20;;;;;;;;;;;;;;;21.84;30.05;99510.22;5066705;28;19947;-69
2022/09/19 13:00:47;;;;;;;;;;;;;;;21.89;30.01;99504.97;5066045;28;19985;-69
2022/09/19 13:03:16;;;;;;;;;;;;;;;22.07;28.89;99503.97;5067865;28;19916;-69
2022/09/19 13:06:02;;;;;;;;;;;;;;;22.10;29.55;99503.47;5065684;28;19983;-69
2022/09/19 13:08:30;;;;;;;;;;;;;;;22.05;29.38;99496.13;5066686;28;19925;-69
2022/09/19 13:11:01;;;;;;;;;;;;;;;22.24;30.26;99500.22;5064728;28;19927;-69